Flight Track Log - Related Links

Times and Time Zones

All times are in EDT time to prevent confusion due to time zone crossing. See the AAY893A flight status page for this flight to view local times or setup timezone preferences in your user account.

Time Position Orientation Groundspeed Altitude Reporting Facility
EDT Latitude Longitude Course Direction KTS MPH feet Rate Location/Type
Mon 01:36:02 AM 32.8353 -82.3142 182° South 65 75 34,000  Level Jacksonville Center
Mon 01:38:00 AM 32.6489 -82.3237 182° South  Level FlightAware Approximate
Mon 01:45:00 AM 31.9863 -82.3768 184° South  Level Estimated
Mon 01:46:00 AM 31.8916 -82.3831 183° South  Level FlightAware Approximate
Mon 01:47:00 AM 31.7969 -82.3894 183° South  Level FlightAware Approximate
Mon 01:48:00 AM 31.7022 -82.3957 183° South  Level FlightAware Approximate
Mon 01:49:00 AM 31.6074 -82.4019 183° South  Level FlightAware Approximate
Mon 01:50:00 AM 31.5127 -82.4082 183° South  Level FlightAware Approximate
Mon 01:51:00 AM 31.4180 -82.4144 183° South  Level FlightAware Approximate
Mon 01:52:00 AM 31.3233 -82.4206 183° South  Level FlightAware Approximate
Mon 01:53:00 AM 31.2286 -82.4268 183° South  Level FlightAware Approximate
Mon 01:54:00 AM 31.1338 -82.4330 183° South  Level FlightAware Approximate
Mon 01:55:00 AM 31.0391 -82.4392 183° South  Level FlightAware Approximate
Mon 01:56:00 AM 30.9444 -82.4454 183° South  Level FlightAware Approximate
Mon 01:57:00 AM 30.8497 -82.4516 183° South  Level FlightAware Approximate
Mon 01:58:00 AM 30.7550 -82.4577 183° South  Level FlightAware Approximate
Mon 01:59:00 AM 30.6603 -82.4656 188° South  Level Estimated
Mon 02:00:00 AM 30.5657 -82.4734 185° South  Level Estimated
Mon 02:01:00 AM 30.4713 -82.4837 185° South  Level FlightAware Approximate
Mon 02:02:00 AM 30.3768 -82.4939 185° South  Level FlightAware Approximate
Mon 02:03:00 AM 30.2823 -82.5042 185° South  Level FlightAware Approximate
Mon 02:04:00 AM 30.1877 -82.5116 180° South  Level Estimated
Mon 02:05:00 AM 30.0930 -82.5191 185° South  Level Estimated
Mon 02:06:00 AM 29.9984 -82.5261 184° South  Level FlightAware Approximate
Mon 02:07:00 AM 29.9037 -82.5335 187° South  Level Estimated
Mon 02:08:00 AM 29.8092 -82.5427 185° South  Level FlightAware Approximate
Mon 02:09:00 AM 29.7145 -82.5500 182° South  Level Estimated
Mon 02:10:00 AM 29.6197 -82.5540 182° South  Level FlightAware Approximate
Mon 02:11:00 AM 29.5249 -82.5580 182° South  Level FlightAware Approximate
Mon 02:12:00 AM 29.4301 -82.5619 182° South  Level FlightAware Approximate
Mon 02:13:00 AM 29.3355 -82.5698 187° South  Level Estimated
Mon 02:14:00 AM 29.2411 -82.5805 186° South  Level FlightAware Approximate
Mon 02:15:00 AM 29.1467 -82.5910 186° South  Level FlightAware Approximate
Mon 02:16:00 AM 29.0520 -82.5985 180° South  Level Estimated
Mon 02:17:00 AM 28.9574 -82.6059 190° South  Level Estimated
Mon 02:18:00 AM 28.8627 -82.6134 180° South  Level Estimated
Mon 02:19:00 AM 28.7681 -82.6208 180° South  Level Estimated
Mon 02:20:00 AM 28.6735 -82.6282 185° South  Level Estimated
Mon 02:21:00 AM 28.5788 -82.6356 184° South  Level Estimated
Mon 02:22:00 AM 28.4841 -82.6408 183° South  Level FlightAware Approximate
Mon 02:23:00 AM 28.3893 -82.6460 183° South  Level FlightAware Approximate
Mon 02:24:00 AM 28.2947 -82.6542 185° South  Level Estimated
Mon 02:25:00 AM 28.2001 -82.6624 180° South  Level Estimated
Mon 02:26:00 AM 28.1055 -82.6706 180° South  Level Estimated
Mon 02:27:00 AM 28.0109 -82.6787 190° South  Level Estimated
Mon 02:28:00 AM 27.9163 -82.6869 190° South  Level Estimated
Mon 02:29:00 AM 27.9100 -82.6874 190° South  Level Estimated
Mon 02:30:00 AM 27.9100 -82.6874 190° South  Level Estimated
Mon 02:31:00 AM 27.9100 -82.6874 190° South  Level Estimated
Mon 02:32:00 AM 27.9100 -82.6874 190° South  Level Estimated
Mon 02:33:00 AM 27.9100 -82.6874 190° South  Level Estimated
Mon 02:34:00 AM 27.9100 -82.6874 190° South  Level Estimated
Mon 02:35:00 AM 27.9100 -82.6874 190° South  Level Estimated
Mon 02:36:00 AM 27.9100 -82.6874 190° South  Level Estimated
Mon 02:37:00 AM 27.9100 -82.6874 190° South  Level Estimated
Mon 02:38:00 AM 27.9100 -82.6874 190° South  Level Estimated
Mon 02:39:00 AM 27.9100 -82.6874 190° South  Level Estimated
Mon 02:40:00 AM 27.9100 -82.6874 190° South  Level Estimated
Mon 02:41:00 AM 27.9100 -82.6874 190° South  Level Estimated
Mon 02:42:00 AM 27.9100 -82.6874 190° South  Level Estimated

Login

Don't have an account? Register now (free) for customized features, flight alerts, and more!